Time;durP1;ratioP1;P1;durP2;ratioP2;P2;SDS_P1;SDS_P2;PMS_P1;PMS_P2;Temp;Humidity;BMP_temperature;BMP_pressure;BME280_temperature;BME280_humidity;BME280_pressure;Samples;Min_cycle;Max_cycle;Signal;HPM_P1;HPM_P2
2021/03/08 00:02:06;;;;;;;21.77;8.60;;;;;;;3.47;62.57;101795.03;5080780;28;20259;-76
2021/03/08 00:04:31;;;;;;;10.77;6.23;;;;;;;3.42;62.42;101803.31;5079327;28;20187;-75
2021/03/08 00:06:57;;;;;;;10.80;5.77;;;;;;;3.27;62.66;101814.53;5079394;28;20966;-75
2021/03/08 00:09:22;;;;;;;27.13;13.57;;;;;;;3.55;61.91;101808.38;5079488;28;20169;-76
2021/03/08 00:11:47;;;;;;;18.60;11.53;;;;;;;3.90;61.43;101806.84;5079899;28;20176;-77
2021/03/08 00:14:13;;;;;;;14.80;6.20;;;;;;;3.76;60.46;101808.69;5082217;28;20264;-75
2021/03/08 00:16:38;;;;;;;18.40;6.93;;;;;;;3.58;61.05;101811.09;5086663;28;20204;-72
2021/03/08 00:19:03;;;;;;;12.93;6.03;;;;;;;3.32;61.94;101818.28;5085459;28;20219;-73
2021/03/08 00:21:29;;;;;;;12.87;6.80;;;;;;;3.30;61.41;101824.13;5078781;28;20165;-76
2021/03/08 00:23:54;;;;;;;11.40;6.17;;;;;;;3.19;61.89;101816.69;5078174;28;20484;-75
2021/03/08 00:26:19;;;;;;;17.77;6.27;;;;;;;3.27;61.20;101821.41;5078956;28;20216;-74
2021/03/08 00:28:44;;;;;;;18.33;7.00;;;;;;;3.43;62.07;101834.34;5080027;28;20169;-72
2021/03/08 00:31:10;;;;;;;21.40;7.37;;;;;;;2.76;63.76;101832.25;5081504;28;20226;-73
2021/03/08 00:33:35;;;;;;;14.47;6.10;;;;;;;2.74;63.69;101828.69;5081016;28;20230;-72
2021/03/08 00:36:00;;;;;;;18.13;6.87;;;;;;;2.78;63.73;101832.34;5078637;28;20168;-72
2021/03/08 00:38:26;;;;;;;13.00;6.50;;;;;;;2.80;64.36;101838.44;5078998;28;20185;-71
2021/03/08 00:40:51;;;;;;;15.43;7.03;;;;;;;3.40;62.65;101835.84;5078483;28;20195;-76
2021/03/08 00:43:17;;;;;;;19.60;6.30;;;;;;;3.28;62.10;101836.06;5078542;28;20314;-76
2021/03/08 00:45:42;;;;;;;11.07;6.50;;;;;;;3.48;61.86;101839.78;5079007;28;20168;-77
2021/03/08 00:48:08;;;;;;;16.20;6.77;;;;;;;3.43;61.34;101846.34;5079083;28;20271;-75
2021/03/08 00:50:33;;;;;;;11.87;7.10;;;;;;;3.33;61.76;101840.66;5078962;28;20542;-75
2021/03/08 00:52:58;;;;;;;12.90;7.80;;;;;;;3.34;62.35;101839.88;5078942;28;20171;-75
2021/03/08 00:55:24;;;;;;;18.20;7.80;;;;;;;3.21;62.33;101842.56;5078387;28;20180;-73
2021/03/08 00:57:49;;;;;;;14.77;8.50;;;;;;;2.98;63.29;101844.69;5078241;28;20195;-74
2021/03/08 01:00:17;;;;;;;18.83;7.60;;;;;;;3.23;62.51;101834.91;5078551;28;20251;-74
2021/03/08 01:02:43;;;;;;;17.30;7.53;;;;;;;3.12;63.03;101839.44;5078164;28;20259;-74
2021/03/08 01:05:09;;;;;;;21.27;8.57;;;;;;;2.77;64.02;101840.84;5078642;28;20709;-74
2021/03/08 01:07:34;;;;;;;12.27;6.30;;;;;;;3.01;62.87;101824.25;5078730;28;20197;-73
2021/03/08 01:10:00;;;;;;;16.97;9.50;;;;;;;2.91;63.04;101826.19;5078141;28;20847;-72
2021/03/08 01:12:25;;;;;;;22.07;10.03;;;;;;;2.73;63.73;101837.19;5077948;28;20165;-72
2021/03/08 01:14:51;;;;;;;12.97;6.47;;;;;;;2.79;62.92;101836.69;5078564;28;20213;-72
2021/03/08 01:17:17;;;;;;;17.30;8.20;;;;;;;3.14;63.00;101831.00;5078520;28;20432;-74
2021/03/08 01:19:42;;;;;;;13.27;7.60;;;;;;;3.08;62.15;101827.19;5078550;28;20252;-72
2021/03/08 01:22:08;;;;;;;14.13;7.77;;;;;;;3.22;61.67;101818.56;5079216;28;20835;-72
2021/03/08 01:24:33;;;;;;;10.20;6.23;;;;;;;3.10;61.94;101823.00;5077879;28;20165;-72
2021/03/08 01:26:58;;;;;;;16.70;8.10;;;;;;;3.29;61.26;101825.84;5077939;28;20200;-71
2021/03/08 01:29:24;;;;;;;13.93;6.43;;;;;;;3.00;62.24;101822.50;5078202;28;20165;-72
2021/03/08 01:31:49;;;;;;;14.33;6.40;;;;;;;2.83;62.44;101836.94;5077775;28;20165;-72
2021/03/08 01:34:14;;;;;;;12.60;6.70;;;;;;;2.61;62.37;101832.22;5079081;28;20195;-71
2021/03/08 01:36:40;;;;;;;11.67;6.73;;;;;;;2.46;62.83;101829.63;5082351;28;20234;-71
2021/03/08 01:39:05;;;;;;;14.73;7.33;;;;;;;2.49;63.08;101836.63;5081866;28;20177;-71
2021/03/08 01:41:31;;;;;;;14.17;6.37;;;;;;;2.54;63.29;101827.47;5081784;28;20255;-72
2021/03/08 01:43:56;;;;;;;12.10;6.17;;;;;;;2.84;61.57;101835.25;5082387;28;20531;-71
2021/03/08 01:46:21;;;;;;;19.00;6.63;;;;;;;2.80;61.77;101828.13;5081776;28;20161;-72
2021/03/08 01:48:47;;;;;;;12.93;7.03;;;;;;;2.72;61.76;101826.81;5081084;28;20557;-72
2021/03/08 01:51:12;;;;;;;7.67;5.63;;;;;;;5.85;77.29;101813.94;5082242;28;20168;-76
2021/03/08 01:53:37;;;;;;;8.90;5.30;;;;;;;10.50;65.88;101796.25;5081522;28;20218;-74
2021/03/08 01:56:04;;;;;;;7.73;5.70;;;;;;;5.97;50.92;101809.31;5081395;28;20545;-77
2021/03/08 01:58:29;;;;;;;13.20;6.43;;;;;;;5.14;54.14;101813.13;5081752;28;20192;-77
2021/03/08 02:00:55;;;;;;;12.30;7.03;;;;;;;4.47;55.42;101809.81;5081349;28;20444;-76
2021/03/08 02:03:21;;;;;;;10.77;5.80;;;;;;;3.37;57.30;101824.56;5064192;28;20222;-78
2021/03/08 02:05:47;;;;;;;16.07;5.80;;;;;;;3.15;58.56;101819.00;5081741;28;20482;-78
2021/03/08 02:08:15;;;;;;;9.07;6.23;;;;;;;3.13;59.16;101816.34;5080556;28;20287;-77
2021/03/08 02:10:42;;;;;;;8.97;5.50;;;;;;;3.09;58.79;101810.94;5081211;28;20173;-76
2021/03/08 02:13:34;;;;;;;12.87;5.50;;;;;;;3.16;58.47;101824.22;5081684;28;20407;-76
2021/03/08 02:16:06;;;;;;;10.40;5.30;;;;;;;3.17;57.90;101815.72;5081111;28;20446;-76
2021/03/08 02:18:55;;;;;;;11.97;5.60;;;;;;;2.93;59.21;101822.03;5080472;28;20407;-76
2021/03/08 02:21:34;;;;;;;13.40;5.60;;;;;;;2.99;58.13;101820.72;5080200;28;20446;-76
2021/03/08 02:24:21;;;;;;;12.20;6.07;;;;;;;2.93;58.79;101824.63;5082908;28;20474;-76
2021/03/08 02:26:52;;;;;;;9.10;6.13;;;;;;;2.74;59.67;101835.53;5082418;28;20462;-76
2021/03/08 02:29:39;;;;;;;8.57;4.93;;;;;;;3.05;58.73;101830.47;5081234;28;20746;-77
2021/03/08 02:32:07;;;;;;;11.80;7.23;;;;;;;2.64;60.19;101827.25;5080539;28;20418;-75
2021/03/08 02:34:37;;;;;;;11.20;5.13;;;;;;;2.95;58.96;101829.06;5080151;28;20407;-75
2021/03/08 02:37:09;;;;;;;14.50;6.30;;;;;;;2.67;59.74;101834.28;5080298;28;20418;-76
2021/03/08 02:39:40;;;;;;;7.43;5.67;;;;;;;2.74;58.85;101832.94;5080014;28;20866;-76
2021/03/08 02:42:06;;;;;;;7.27;4.37;;;;;;;2.75;58.84;101840.75;5079891;28;20506;-78
2021/03/08 02:44:35;;;;;;;12.33;6.23;;;;;;;2.53;60.28;101844.63;5080681;28;20786;-75
2021/03/08 02:47:01;;;;;;;12.13;5.77;;;;;;;2.69;58.88;101841.28;5079158;28;20496;-75
2021/03/08 02:49:44;;;;;;;6.97;4.40;;;;;;;2.58;60.07;101837.16;5080628;28;20403;-75
2021/03/08 02:52:10;;;;;;;11.87;5.70;;;;;;;2.86;58.94;101843.97;5079644;28;20165;-75
2021/03/08 02:54:37;;;;;;;11.17;5.97;;;;;;;2.55;59.75;101843.84;5080606;28;20704;-75
2021/03/08 02:57:05;;;;;;;7.93;4.73;;;;;;;2.59;58.84;101840.66;5080199;28;20407;-75
2021/03/08 02:59:40;;;;;;;10.37;5.97;;;;;;;2.80;58.40;101848.75;5079592;28;20416;-75
2021/03/08 03:02:06;;;;;;;8.53;5.90;;;;;;;2.48;58.83;101845.16;5079471;28;20407;-75
2021/03/08 03:04:33;;;;;;;11.73;4.83;;;;;;;2.53;59.40;101848.91;5080175;28;20407;-74
2021/03/08 03:07:00;;;;;;;6.63;5.07;;;;;;;2.59;58.81;101848.38;5079472;28;20446;-75
2021/03/08 03:09:26;;;;;;;9.40;4.30;;;;;;;2.35;59.74;101853.81;5080066;28;20407;-75
2021/03/08 03:11:53;;;;;;;10.07;5.73;;;;;;;2.45;59.24;101852.66;5079412;28;20455;-76
2021/03/08 03:14:19;;;;;;;7.87;4.70;;;;;;;2.27;59.19;101849.88;5079585;28;20411;-75
2021/03/08 03:16:46;;;;;;;8.17;4.27;;;;;;;2.59;58.53;101856.97;5079689;28;20400;-76
2021/03/08 03:19:12;;;;;;;8.60;4.80;;;;;;;2.36;59.57;101859.03;5080022;28;20412;-75
2021/03/08 03:21:38;;;;;;;9.80;4.77;;;;;;;2.53;59.31;101860.06;5078961;28;20441;-76
2021/03/08 03:24:06;;;;;;;11.13;6.33;;;;;;;2.10;60.78;101861.72;5079776;28;20176;-75
2021/03/08 03:26:33;;;;;;;5.13;3.73;;;;;;;2.03;59.58;101863.00;5078859;28;20481;-75
2021/03/08 03:28:58;;;;;;;12.00;4.10;;;;;;;2.31;58.90;101864.69;5079710;28;20510;-75
2021/03/08 03:31:24;;;;;;;9.90;4.87;;;;;;;2.25;59.82;101856.63;5079390;28;20443;-76
2021/03/08 03:33:49;;;;;;;9.37;4.40;;;;;;;2.39;59.23;101857.47;5078971;28;20169;-75
2021/03/08 03:36:14;;;;;;;5.90;4.57;;;;;;;2.10;59.63;101866.84;5078762;28;20586;-75
2021/03/08 03:38:41;;;;;;;15.83;4.07;;;;;;;2.23;59.53;101860.78;5079395;28;20218;-73
2021/03/08 03:41:06;;;;;;;9.73;4.70;;;;;;;2.45;58.49;101862.97;5079406;28;20227;-76
2021/03/08 03:43:32;;;;;;;17.03;4.70;;;;;;;2.21;58.04;101870.09;5079394;28;20407;-75
2021/03/08 03:46:02;;;;;;;6.03;4.20;;;;;;;2.37;58.84;101870.25;5079185;28;20176;-75
2021/03/08 03:48:27;;;;;;;8.13;3.70;;;;;;;2.27;58.73;101878.19;5079397;28;20192;-76
2021/03/08 03:50:53;;;;;;;10.70;4.67;;;;;;;2.08;60.27;101877.03;5079326;28;20808;-76
2021/03/08 03:53:18;;;;;;;6.70;4.43;;;;;;;1.91;60.23;101877.66;5079533;28;20165;-78
2021/03/08 03:55:43;;;;;;;6.57;4.50;;;;;;;2.17;59.22;101884.44;5078433;28;20173;-75
2021/03/08 03:58:17;;;;;;;8.10;4.83;;;;;;;2.16;59.29;101880.09;5079203;28;20165;-75
2021/03/08 04:00:52;;;;;;;11.00;4.27;;;;;;;1.99;59.41;101871.34;5079778;28;20497;-75
2021/03/08 04:03:19;;;;;;;6.27;4.57;;;;;;;2.16;58.97;101887.81;5078563;28;20472;-76
2021/03/08 04:05:44;;;;;;;11.67;6.33;;;;;;;2.18;59.67;101894.81;5079000;28;20426;-76
2021/03/08 04:08:11;;;;;;;7.83;4.23;;;;;;;1.97;59.43;101890.91;5078936;28;20723;-75
2021/03/08 04:10:38;;;;;;;5.73;4.63;;;;;;;2.21;58.96;101895.81;5078360;28;20185;-75
2021/03/08 04:13:08;;;;;;;6.37;4.27;;;;;;;2.00;58.95;101901.38;5078768;28;20666;-75
2021/03/08 04:15:34;;;;;;;8.30;4.20;;;;;;;1.99;59.12;101897.06;5079080;28;20407;-76
2021/03/08 04:18:00;;;;;;;5.50;4.27;;;;;;;1.97;59.32;101899.50;5078065;28;20426;-75
2021/03/08 04:20:28;;;;;;;6.63;4.10;;;;;;;2.18;58.30;101893.94;5078653;28;20411;-75
2021/03/08 04:22:55;;;;;;;9.40;4.70;;;;;;;2.00;59.56;101898.81;5079830;28;20435;-75
2021/03/08 04:25:21;;;;;;;10.43;5.13;;;;;;;1.67;59.46;101901.00;5082310;28;20467;-75
2021/03/08 04:27:50;;;;;;;7.70;4.30;;;;;;;1.66;60.06;101904.38;5080940;28;20458;-76
2021/03/08 04:30:17;;;;;;;5.83;4.10;;;;;;;2.14;59.19;101897.13;5078131;28;20173;-75
2021/03/08 04:32:43;;;;;;;5.67;4.57;;;;;;;2.03;58.97;101906.75;5078588;28;20420;-77
2021/03/08 04:35:10;;;;;;;4.27;3.80;;;;;;;1.64;59.55;101904.28;5079215;28;20489;-76
2021/03/08 04:37:38;;;;;;;10.23;4.73;;;;;;;1.73;59.69;101911.69;5061602;28;20191;-76
2021/03/08 04:40:04;;;;;;;10.27;4.77;;;;;;;1.79;59.72;101919.78;5079131;28;20415;-76
2021/03/08 04:42:30;;;;;;;7.97;4.30;;;;;;;1.71;59.65;101915.84;5078488;28;20415;-76
2021/03/08 04:44:55;;;;;;;6.80;3.80;;;;;;;1.74;59.71;101913.47;5078061;28;20469;-77
2021/03/08 04:47:21;;;;;;;8.93;4.20;;;;;;;1.93;59.17;101920.66;5077644;28;20207;-77
2021/03/08 04:49:48;;;;;;;6.23;4.20;;;;;;;1.58;59.93;101920.97;5078808;28;20160;-76
2021/03/08 04:52:14;;;;;;;6.40;4.60;;;;;;;1.74;59.79;101922.88;5061058;28;20449;-77
2021/03/08 04:54:43;;;;;;;6.70;4.20;;;;;;;1.80;59.69;101921.59;5078104;28;20414;-79
2021/03/08 04:57:10;;;;;;;9.37;4.40;;;;;;;1.79;59.94;101927.50;5078430;28;20197;-77
2021/03/08 04:59:35;;;;;;;6.87;5.40;;;;;;;1.84;59.46;101920.06;5077683;28;20442;-77
2021/03/08 05:02:01;;;;;;;6.63;4.40;;;;;;;1.89;59.67;101931.56;5077628;28;20415;-75
2021/03/08 05:04:26;;;;;;;8.63;4.60;;;;;;;1.66;60.50;101930.06;5078324;28;20169;-73
2021/03/08 05:06:53;;;;;;;7.53;4.60;;;;;;;1.94;59.35;101937.00;5076872;28;20556;-76
2021/03/08 05:09:19;;;;;;;11.43;4.70;;;;;;;1.74;59.46;101935.72;5079560;28;20173;-76
2021/03/08 05:11:45;;;;;;;5.63;4.50;;;;;;;1.87;59.47;101940.88;5082168;28;20431;-75
2021/03/08 05:14:13;;;;;;;7.00;4.50;;;;;;;1.67;60.08;101935.31;5081853;28;20501;-75
2021/03/08 05:16:41;;;;;;;9.60;5.20;;;;;;;1.72;59.86;101940.78;5081598;28;20189;-74
2021/03/08 05:19:07;;;;;;;6.07;4.70;;;;;;;1.62;60.43;101952.09;5082517;28;20415;-75
2021/03/08 05:21:34;;;;;;;9.63;4.33;;;;;;;1.67;60.72;101953.31;5081202;28;20440;-74
2021/03/08 05:23:59;;;;;;;6.97;5.20;;;;;;;1.68;60.78;101944.81;5081444;28;20680;-74
2021/03/08 05:26:25;;;;;;;6.97;5.00;;;;;;;1.60;61.03;101951.13;5081179;28;20469;-76
2021/03/08 05:28:52;;;;;;;7.10;4.83;;;;;;;1.80;59.90;101939.59;5081547;28;20220;-74
2021/03/08 05:31:19;;;;;;;10.13;4.80;;;;;;;1.80;59.97;101951.53;5081462;28;20418;-75
2021/03/08 05:33:45;;;;;;;7.50;4.80;;;;;;;1.61;60.27;101952.00;5081353;28;20854;-75
2021/03/08 05:36:11;;;;;;;8.80;4.80;;;;;;;1.73;60.34;101955.38;5081134;28;20467;-75
2021/03/08 05:38:39;;;;;;;6.00;4.83;;;;;;;1.69;59.99;101950.81;5081590;28;20395;-75
2021/03/08 05:41:11;;;;;;;9.40;5.27;;;;;;;1.79;59.83;101952.34;5081622;28;20445;-75
2021/03/08 05:43:37;;;;;;;8.53;4.27;;;;;;;1.68;59.83;101956.78;5081498;28;20410;-75
2021/03/08 05:46:09;;;;;;;13.07;5.37;;;;;;;1.68;59.58;101965.38;5081166;28;20690;-75
2021/03/08 05:48:46;;;;;;;7.43;4.33;;;;;;;1.44;60.68;101963.75;5081684;28;20215;-76
2021/03/08 05:51:53;;;;;;;10.00;5.20;;;;;;;1.41;61.10;101968.69;5081449;28;20668;-75
2021/03/08 05:54:56;;;;;;;6.50;4.43;;;;;;;1.69;59.91;101961.13;5080653;28;20406;-75
2021/03/08 05:57:40;;;;;;;7.20;5.13;;;;;;;1.94;59.25;101963.59;5081463;28;20418;-75
2021/03/08 06:00:25;;;;;;;5.77;4.70;;;;;;;1.77;59.52;101964.19;5081575;28;20903;-76
2021/03/08 06:02:57;;;;;;;7.80;4.77;;;;;;;1.99;59.00;101967.38;5080668;28;20510;-76
2021/03/08 06:05:43;;;;;;;7.27;5.20;;;;;;;1.90;59.32;101971.91;5081373;28;20459;-76
2021/03/08 06:08:08;;;;;;;8.13;5.33;;;;;;;1.81;59.38;101977.38;5080528;28;20536;-75
2021/03/08 06:10:35;;;;;;;8.13;5.40;;;;;;;1.52;59.83;101978.88;5081390;28;20415;-76
2021/03/08 06:13:09;;;;;;;9.23;4.97;;;;;;;2.10;59.36;101980.03;5081501;28;20194;-77
2021/03/08 06:15:36;;;;;;;14.77;7.17;;;;;;;2.13;60.49;101982.81;5081429;28;20423;-77
2021/03/08 06:18:09;;;;;;;15.90;9.53;;;;;;;1.91;60.38;101993.38;5081267;28;20427;-75
2021/03/08 06:20:34;;;;;;;10.53;6.50;;;;;;;1.71;60.05;101999.81;5081013;28;20442;-76
2021/03/08 06:23:01;;;;;;;15.20;7.50;;;;;;;1.94;59.04;101998.72;5084993;28;20446;-75
2021/03/08 06:25:27;;;;;;;11.10;7.77;;;;;;;1.98;61.29;101999.00;5088050;28;20276;-76
2021/03/08 06:27:53;;;;;;;26.27;15.70;;;;;;;1.79;60.02;102004.66;5090520;28;20473;-75
2021/03/08 06:30:19;;;;;;;46.70;22.27;;;;;;;1.54;60.72;102008.94;5092547;28;20570;-73
2021/03/08 06:32:45;;;;;;;28.90;14.93;;;;;;;1.80;60.15;102010.66;5091159;28;20507;-74
2021/03/08 06:35:13;;;;;;;13.13;8.03;;;;;;;2.13;59.27;102011.97;5082750;28;20177;-73
2021/03/08 06:37:38;;;;;;;10.90;6.43;;;;;;;2.36;58.00;102021.16;5081772;28;20403;-74
2021/03/08 06:40:04;;;;;;;12.63;7.40;;;;;;;2.79;56.91;102016.97;5081183;28;20423;-73
2021/03/08 06:42:29;;;;;;;12.07;6.80;;;;;;;2.34;57.61;102022.75;5079897;28;20456;-72
2021/03/08 06:44:55;;;;;;;12.70;6.17;;;;;;;2.60;56.92;102020.94;5081397;28;20418;-74
2021/03/08 06:47:20;;;;;;;13.77;7.00;;;;;;;2.09;57.92;102038.28;5081918;28;20483;-73
2021/03/08 06:49:46;;;;;;;16.70;8.90;;;;;;;2.14;58.02;102043.75;5088957;28;20229;-74
2021/03/08 06:52:13;;;;;;;16.00;6.93;;;;;;;2.58;57.36;102027.66;5089815;28;20165;-72
2021/03/08 06:54:40;;;;;;;11.90;7.27;;;;;;;2.33;57.66;102033.84;5086537;28;20200;-72
2021/03/08 06:57:21;;;;;;;25.53;10.80;;;;;;;2.13;59.25;102037.69;5082146;28;20426;-73
2021/03/08 07:00:07;;;;;;;10.40;6.77;;;;;;;2.33;58.44;102041.56;5080999;28;20430;-73
2021/03/08 07:02:40;;;;;;;11.37;6.50;;;;;;;2.53;58.03;102039.38;5080537;28;20498;-75
2021/03/08 07:05:26;;;;;;;8.87;6.57;;;;;;;4.83;52.60;102033.81;5080333;28;20473;-76
2021/03/08 07:07:59;;;;;;;11.23;5.97;;;;;;;6.12;47.13;102028.34;5080398;28;20505;-76
2021/03/08 07:10:38;;;;;;;11.40;5.90;;;;;;;6.99;44.70;102035.84;5080292;28;20455;-76
2021/03/08 07:13:05;;;;;;;12.17;6.03;;;;;;;7.89;43.20;102030.22;5080178;28;20421;-76
2021/03/08 07:15:30;;;;;;;17.00;6.47;;;;;;;9.20;39.70;102026.59;5079942;28;20426;-73
2021/03/08 07:17:56;;;;;;;12.17;5.87;;;;;;;8.19;41.29;102032.28;5079849;28;20696;-75
2021/03/08 07:20:25;;;;;;;9.20;5.60;;;;;;;9.22;39.28;102040.56;5080177;28;20238;-74
2021/03/08 07:22:52;;;;;;;13.43;6.17;;;;;;;9.92;37.33;102038.63;5079472;28;20195;-74
2021/03/08 07:25:26;;;;;;;11.73;6.80;;;;;;;9.21;39.37;102036.16;5079394;28;20463;-74
2021/03/08 07:27:52;;;;;;;15.50;5.50;;;;;;;10.69;36.31;102029.75;5079442;28;20465;-74
2021/03/08 07:30:20;;;;;;;8.17;5.30;;;;;;;9.94;37.10;102036.94;5079635;28;20419;-74
2021/03/08 07:33:12;;;;;;;8.70;5.63;;;;;;;11.08;34.84;102029.16;5079255;28;20390;-73
2021/03/08 07:35:48;;;;;;;12.07;5.60;;;;;;;10.19;36.41;102037.72;5079331;28;20411;-73
2021/03/08 07:38:16;;;;;;;7.80;4.80;;;;;;;11.31;34.70;102032.38;5079328;28;20397;-74
2021/03/08 07:40:45;;;;;;;10.47;6.00;;;;;;;11.10;34.63;102033.56;5079105;28;20390;-71
2021/03/08 07:43:21;;;;;;;11.60;6.60;;;;;;;10.59;35.04;102036.41;5079203;28;20397;-71
2021/03/08 07:45:46;;;;;;;7.80;5.03;;;;;;;10.63;36.46;102032.19;5079358;28;20426;-71
2021/03/08 07:48:19;;;;;;;7.13;4.70;;;;;;;10.75;34.69;102040.38;5078404;28;20437;-70
2021/03/08 07:50:46;;;;;;;6.63;4.50;;;;;;;9.95;36.44;102049.16;5078126;28;20164;-71
2021/03/08 07:53:31;;;;;;;7.30;5.00;;;;;;;11.30;33.79;102035.88;5079168;28;20386;-71
2021/03/08 07:55:59;;;;;;;5.43;4.10;;;;;;;11.92;33.81;102033.13;5079028;28;20382;-72
2021/03/08 07:58:25;;;;;;;8.70;4.33;;;;;;;11.31;33.75;102035.00;5079840;28;20426;-70
2021/03/08 08:00:51;;;;;;;5.93;3.90;;;;;;;13.38;29.82;102020.63;5080786;28;20429;-72
2021/03/08 08:03:16;;;;;;;5.40;4.10;;;;;;;11.88;32.52;102033.00;5079396;28;20416;-72
2021/03/08 08:05:42;;;;;;;10.53;5.90;;;;;;;12.39;31.40;102024.66;5079199;28;20191;-71
2021/03/08 08:08:08;;;;;;;5.37;4.30;;;;;;;11.66;32.29;102028.97;5078463;28;20223;-71
2021/03/08 08:10:34;;;;;;;10.03;4.60;;;;;;;12.16;31.79;102029.38;5077926;28;20427;-72
2021/03/08 08:13:02;;;;;;;5.30;4.10;;;;;;;10.45;34.64;102025.56;5078901;28;20165;-74
2021/03/08 08:15:29;;;;;;;7.10;4.40;;;;;;;11.07;33.04;102028.28;5077646;28;20546;-72
2021/03/08 08:17:55;;;;;;;5.43;4.10;;;;;;;12.53;29.74;102017.16;5077761;28;20468;-71
2021/03/08 08:20:21;;;;;;;6.67;4.40;;;;;;;13.41;29.82;102025.91;5078878;28;20439;-71
2021/03/08 08:22:57;;;;;;;4.53;3.90;;;;;;;12.32;31.43;102028.00;5077816;28;20488;-72
2021/03/08 08:25:22;;;;;;;5.47;3.97;;;;;;;10.08;35.32;102035.69;5078466;28;20485;-73
2021/03/08 08:27:48;;;;;;;6.07;3.40;;;;;;;9.80;36.32;102046.91;5078718;28;20463;-72
2021/03/08 08:30:14;;;;;;;6.43;3.50;;;;;;;12.09;31.86;102024.84;5078488;28;20200;-70
2021/03/08 08:32:47;;;;;;;7.13;3.70;;;;;;;11.63;32.17;102037.59;5078581;28;20489;-74
2021/03/08 08:35:30;;;;;;;4.80;3.67;;;;;;;13.38;30.72;102029.38;5078487;28;20171;-71
2021/03/08 08:38:07;;;;;;;4.70;4.00;;;;;;;14.84;27.92;102021.16;5078566;28;20447;-72
2021/03/08 08:40:33;;;;;;;8.77;3.97;;;;;;;14.38;28.35;102027.50;5078422;28;20722;-72
2021/03/08 08:43:25;;;;;;;5.20;4.70;;;;;;;16.24;25.95;102021.69;5077598;28;20468;-71
2021/03/08 08:45:52;;;;;;;7.40;4.87;;;;;;;13.55;29.45;102034.03;5077940;28;20411;-73
2021/03/08 08:48:21;;;;;;;5.67;3.97;;;;;;;14.40;27.67;102025.81;5078415;28;20490;-71
2021/03/08 08:50:51;;;;;;;10.10;4.37;;;;;;;11.48;32.41;102043.31;5078192;28;20396;-74
2021/03/08 08:53:35;;;;;;;5.70;4.40;;;;;;;12.81;30.94;102049.13;5078232;28;20407;-72
2021/03/08 08:56:01;;;;;;;7.73;4.10;;;;;;;13.14;29.94;102032.38;5078160;28;20386;-72
2021/03/08 08:58:42;;;;;;;8.03;4.00;;;;;;;13.64;28.97;102034.22;5078284;28;20411;-70
2021/03/08 09:01:14;;;;;;;7.67;4.80;;;;;;;14.63;28.43;102017.41;5077910;28;20812;-71
2021/03/08 09:03:49;;;;;;;5.23;3.47;;;;;;;9.72;35.46;102046.63;5078463;28;20938;-73
2021/03/08 09:06:42;;;;;;;8.63;4.80;;;;;;;11.62;32.78;102041.06;5078444;28;20794;-71
2021/03/08 09:09:09;;;;;;;4.67;3.80;;;;;;;12.09;31.23;102036.16;5078242;28;20857;-71
2021/03/08 09:11:47;;;;;;;5.17;3.60;;;;;;;12.64;30.66;102043.56;5077808;28;20426;-71
2021/03/08 09:14:38;;;;;;;5.80;4.27;;;;;;;12.08;30.40;102042.28;5078048;28;20482;-73
2021/03/08 09:17:09;;;;;;;6.30;3.60;;;;;;;14.89;26.63;102028.22;5078098;28;20614;-73
2021/03/08 09:19:35;;;;;;;4.90;4.03;;;;;;;15.65;25.87;102035.22;5078024;28;20457;-74
2021/03/08 09:22:22;;;;;;;5.60;3.60;;;;;;;13.35;28.21;102042.38;5077776;28;20439;-74
2021/03/08 09:25:08;;;;;;;6.40;3.90;;;;;;;14.32;25.58;102035.31;5077769;28;20546;-73
2021/03/08 09:27:35;;;;;;;4.90;3.60;;;;;;;14.37;25.66;102041.50;5077495;28;20433;-74
2021/03/08 09:30:08;;;;;;;7.40;4.20;;;;;;;12.23;29.82;102043.47;5066043;28;20438;-74
2021/03/08 09:32:34;;;;;;;5.20;3.70;;;;;;;13.93;27.84;102042.56;5073116;28;20800;-76
2021/03/08 09:35:08;;;;;;;5.77;4.20;;;;;;;13.44;27.37;102047.81;5057725;28;20868;-71
2021/03/08 09:37:34;;;;;;;4.53;3.47;;;;;;;14.54;26.07;102040.88;5068585;28;20418;-73
2021/03/08 09:40:01;;;;;;;6.40;4.40;;;;;;;14.88;25.27;102039.59;5077782;28;20425;-73
2021/03/08 09:42:37;;;;;;;6.10;5.20;;;;;;;14.61;26.44;102043.59;5078093;28;20166;-72
2021/03/08 09:45:30;;;;;;;20.20;13.80;;;;;;;14.53;26.31;102034.75;5075635;28;20434;-72
2021/03/08 09:47:57;;;;;;;4.60;3.50;;;;;;;14.34;26.28;102041.44;5057608;28;20495;-72
2021/03/08 09:50:34;;;;;;;4.37;3.43;;;;;;;11.60;29.82;102058.44;5057750;28;20415;-73
2021/03/08 09:52:59;;;;;;;6.33;3.67;;;;;;;12.49;27.06;102058.88;5058172;28;21630;-73
2021/03/08 09:55:33;;;;;;;7.80;4.50;;;;;;;13.79;27.01;102044.94;5059061;28;20424;-72
2021/03/08 09:58:09;;;;;;;9.17;4.43;;;;;;;15.41;24.99;102037.56;5061209;28;20176;-72
2021/03/08 10:00:34;;;;;;;5.07;3.77;;;;;;;14.92;25.21;102037.91;5061486;28;20402;-72
2021/03/08 10:03:04;;;;;;;6.07;4.00;;;;;;;15.09;25.54;102040.75;5070534;28;20450;-72
2021/03/08 10:05:42;;;;;;;4.23;3.83;;;;;;;15.35;24.51;102046.28;5081838;28;20214;-75
2021/03/08 10:08:08;;;;;;;6.13;4.17;;;;;;;15.23;25.30;102048.78;5082097;28;20680;-75
2021/03/08 10:10:39;;;;;;;6.27;4.23;;;;;;;15.45;24.71;102044.63;5082429;28;20774;-73
2021/03/08 10:13:05;;;;;;;4.53;4.07;;;;;;;14.37;25.13;102043.22;5081336;28;20390;-72
2021/03/08 10:15:49;;;;;;;6.30;4.80;;;;;;;14.52;26.07;102038.22;5081769;28;20821;-72
2021/03/08 10:18:20;;;;;;;5.50;4.03;;;;;;;15.09;24.88;102041.59;5081764;28;20168;-71
2021/03/08 10:20:51;;;;;;;8.97;4.30;;;;;;;15.73;23.93;102042.28;5081608;28;20418;-72
2021/03/08 10:23:25;;;;;;;6.63;4.10;;;;;;;14.45;25.05;102049.47;5081832;28;20431;-70
2021/03/08 10:25:52;;;;;;;4.80;4.07;;;;;;;15.17;23.56;102044.34;5081263;28;20550;-71
2021/03/08 10:28:18;;;;;;;4.63;4.00;;;;;;;13.53;25.48;102043.59;5081603;28;20459;-70
2021/03/08 10:30:43;;;;;;;5.60;3.60;;;;;;;13.77;25.06;102046.69;5080918;28;20386;-69
2021/03/08 10:33:16;;;;;;;5.63;3.70;;;;;;;14.97;23.82;102046.72;5081573;28;20407;-74
2021/03/08 10:35:47;;;;;;;5.33;4.10;;;;;;;14.46;23.39;102039.03;5081190;28;20191;-71
2021/03/08 10:38:13;;;;;;;6.57;3.83;;;;;;;14.75;23.94;102043.81;5080697;28;20398;-72
2021/03/08 10:40:40;;;;;;;6.20;4.47;;;;;;;15.13;23.31;102043.41;5080465;28;20382;-71
2021/03/08 10:43:05;;;;;;;5.53;4.10;;;;;;;14.64;23.79;102045.44;5079832;28;20487;-72
2021/03/08 10:45:31;;;;;;;6.33;3.90;;;;;;;14.00;23.92;102048.78;5080086;28;20442;-72
2021/03/08 10:48:07;;;;;;;4.20;3.80;;;;;;;12.25;25.91;102055.72;5079516;28;20212;-71
2021/03/08 10:50:40;;;;;;;6.10;3.50;;;;;;;12.88;24.63;102058.00;5080033;28;20553;-71
2021/03/08 10:53:05;;;;;;;6.20;4.00;;;;;;;14.31;23.23;102046.66;5080452;28;20478;-71
2021/03/08 10:55:31;;;;;;;3.80;3.40;;;;;;;12.91;23.53;102055.47;5080606;28;20425;-70
2021/03/08 10:57:56;;;;;;;7.37;3.73;;;;;;;13.62;21.31;102049.00;5080691;28;20165;-71
2021/03/08 11:00:22;;;;;;;4.83;3.60;;;;;;;13.41;22.71;102053.00;5079516;28;20177;-71
2021/03/08 11:02:47;;;;;;;5.30;3.20;;;;;;;15.10;19.72;102045.09;5079361;28;20259;-70
2021/03/08 11:05:15;;;;;;;5.90;3.50;;;;;;;14.89;20.25;102040.50;5080676;28;20253;-70
2021/03/08 11:07:41;;;;;;;8.33;3.70;;;;;;;13.77;21.34;102043.16;5079215;28;20200;-71
2021/03/08 11:10:07;;;;;;;4.00;3.37;;;;;;;14.58;19.54;102037.41;5080486;28;20415;-70
2021/03/08 11:12:32;;;;;;;6.40;3.70;;;;;;;14.42;20.02;102045.09;5080231;28;20169;-71
2021/03/08 11:14:59;;;;;;;6.67;3.70;;;;;;;13.67;20.86;102043.88;5079804;28;20418;-71
2021/03/08 11:17:43;;;;;;;3.50;3.20;;;;;;;13.78;20.21;102040.56;5080082;28;20188;-70
2021/03/08 11:20:19;;;;;;;4.10;3.70;;;;;;;14.46;20.02;102031.16;5080623;28;20821;-72
2021/03/08 11:23:04;;;;;;;3.53;3.23;;;;;;;14.18;20.15;102032.47;5079861;28;20401;-70
2021/03/08 11:25:39;;;;;;;9.20;3.90;;;;;;;14.07;20.51;102039.28;5079970;28;20509;-71
2021/03/08 11:28:07;;;;;;;5.27;3.60;;;;;;;13.82;20.76;102037.13;5080208;28;20468;-70
2021/03/08 11:30:33;;;;;;;5.53;3.43;;;;;;;13.71;21.06;102040.44;5080297;28;20424;-70
2021/03/08 11:32:59;;;;;;;4.33;3.60;;;;;;;13.52;20.78;102033.97;5080777;28;20422;-70
2021/03/08 11:35:30;;;;;;;4.73;3.80;;;;;;;13.01;22.01;102040.84;5084173;28;20374;-70
2021/03/08 11:38:06;;;;;;;5.70;3.80;;;;;;;13.90;21.09;102031.16;5087099;28;20551;-70